Time,TemperatureF,DewpointF,PressureIn,WindDirection,WindDirectionDegrees,WindSpeedMPH,WindSpeedGustMPH,Humidity,HourlyPrecipIn,Conditions,Clouds,dailyrainin,SoftwareType,DateUTC
2013-07-28 00:06:00,77.7,77.1,29.82,SW,225,2.2,-999.0,98,-99.99,,,0.00,Acu-Link.com,2013-07-28 04:06:00,
2013-07-28 00:37:00,77.2,76.6,29.81,West,270,0.0,-999.0,98,-99.99,,,0.00,Acu-Link.com,2013-07-28 04:37:00,
2013-07-28 00:52:00,77.0,76.4,29.81,NW,315,0.0,-999.0,98,-99.99,,,0.00,Acu-Link.com,2013-07-28 04:52:00,
2013-07-28 01:07:00,76.6,76.0,29.80,West,270,1.7,-999.0,98,-99.99,,,0.00,Acu-Link.com,2013-07-28 05:07:00,
2013-07-28 01:23:00,76.5,75.9,29.81,West,270,1.7,-999.0,98,-99.99,,,0.00,Acu-Link.com,2013-07-28 05:23:00,
2013-07-28 01:38:00,76.3,75.7,29.80,NNW,337,0.0,-999.0,98,-99.99,,,0.00,Acu-Link.com,2013-07-28 05:38:00,
2013-07-28 01:53:00,76.1,75.5,29.80,WNW,292,1.1,-999.0,98,-99.99,,,0.00,Acu-Link.com,2013-07-28 05:53:00,
2013-07-28 02:08:00,75.7,75.1,29.79,WNW,292,1.1,-999.0,98,-99.99,,,0.00,Acu-Link.com,2013-07-28 06:08:00,
2013-07-28 02:24:00,75.6,75.0,29.79,WNW,292,0.0,-999.0,98,-99.99,,,0.00,Acu-Link.com,2013-07-28 06:24:00,
2013-07-28 02:39:00,75.4,74.8,29.79,NNW,337,0.0,-999.0,98,-99.99,,,0.00,Acu-Link.com,2013-07-28 06:39:00,
2013-07-28 02:54:00,75.2,74.6,29.78,North,0,0.0,-999.0,98,-99.99,,,0.00,Acu-Link.com,2013-07-28 06:54:00,
2013-07-28 03:09:00,75.2,74.6,29.77,West,270,1.7,-999.0,98,-99.99,,,0.00,Acu-Link.com,2013-07-28 07:09:00,
2013-07-28 03:25:00,75.2,74.6,29.78,WNW,292,1.7,-999.0,98,-99.99,,,0.00,Acu-Link.com,2013-07-28 07:25:00,
2013-07-28 03:40:00,75.2,74.6,29.77,WNW,292,2.2,-999.0,98,-99.99,,,0.00,Acu-Link.com,2013-07-28 07:40:00,
2013-07-28 03:55:00,75.4,74.8,29.77,WNW,292,0.0,-999.0,98,-99.99,,,0.00,Acu-Link.com,2013-07-28 07:55:00,
2013-07-28 04:10:00,75.4,74.8,29.78,WNW,292,0.0,-999.0,98,-99.99,,,0.00,Acu-Link.com,2013-07-28 08:10:00,
2013-07-28 04:25:00,75.2,74.6,29.78,SW,225,0.0,-999.0,98,-99.99,,,0.00,Acu-Link.com,2013-07-28 08:25:00,
2013-07-28 04:41:00,75.0,74.4,29.77,West,270,0.0,-999.0,98,-99.99,,,0.00,Acu-Link.com,2013-07-28 08:41:00,
2013-07-28 05:11:00,74.7,74.1,29.77,WNW,292,1.7,-999.0,98,-99.99,,,0.00,Acu-Link.com,2013-07-28 09:11:00,
2013-07-28 05:27:00,74.7,74.1,29.78,NW,315,1.7,-999.0,98,-99.99,,,0.00,Acu-Link.com,2013-07-28 09:27:00,
2013-07-28 05:42:00,74.7,74.1,29.79,WNW,292,0.0,-999.0,98,-99.99,,,0.00,Acu-Link.com,2013-07-28 09:42:00,
2013-07-28 05:57:00,74.7,74.1,29.79,WNW,292,0.0,-999.0,98,-99.99,,,0.00,Acu-Link.com,2013-07-28 09:57:00,
2013-07-28 06:12:00,74.5,73.9,29.79,NNW,337,0.0,-999.0,98,-99.99,,,0.00,Acu-Link.com,2013-07-28 10:12:00,
2013-07-28 06:28:00,74.5,73.9,29.79,WNW,292,0.0,-999.0,98,-99.99,,,0.00,Acu-Link.com,2013-07-28 10:28:00,
2013-07-28 06:43:00,74.5,73.9,29.80,WNW,292,0.0,-999.0,98,-99.99,,,0.00,Acu-Link.com,2013-07-28 10:43:00,
2013-07-28 06:58:00,74.7,74.1,29.80,WNW,292,0.0,-999.0,98,-99.99,,,0.00,Acu-Link.com,2013-07-28 10:58:00,
2013-07-28 07:14:00,76.3,75.7,29.81,West,270,0.0,-999.0,98,-99.99,,,0.00,Acu-Link.com,2013-07-28 11:14:00,
2013-07-28 07:29:00,77.0,76.4,29.82,West,270,0.0,-999.0,98,-99.99,,,0.00,Acu-Link.com,2013-07-28 11:29:00,
2013-07-28 07:44:00,77.5,76.9,29.82,West,270,0.0,-999.0,98,-99.99,,,0.00,Acu-Link.com,2013-07-28 11:44:00,
2013-07-28 07:59:00,78.1,77.5,29.83,WNW,292,2.2,-999.0,98,-99.99,,,0.00,Acu-Link.com,2013-07-28 11:59:00,
2013-07-28 08:15:00,79.5,78.9,29.83,West,270,2.2,-999.0,98,-99.99,,,0.00,Acu-Link.com,2013-07-28 12:15:00,
2013-07-28 08:30:00,81.0,80.4,29.83,WNW,292,1.7,-999.0,98,-99.99,,,0.00,Acu-Link.com,2013-07-28 12:30:00,
2013-07-28 08:45:00,81.9,81.3,29.83,SSW,202,0.0,-999.0,98,-99.99,,,0.00,Acu-Link.com,2013-07-28 12:45:00,
2013-07-28 09:01:00,82.4,81.8,29.84,NNW,337,1.7,-999.0,98,-99.99,,,0.00,Acu-Link.com,2013-07-28 13:01:00,
2013-07-28 09:31:00,84.6,84.0,29.84,SW,225,2.2,-999.0,98,-99.99,,,0.00,Acu-Link.com,2013-07-28 13:31:00,
2013-07-28 09:47:00,86.2,84.9,29.83,NE,45,2.2,-999.0,96,-99.99,,,0.00,Acu-Link.com,2013-07-28 13:47:00,
2013-07-28 10:02:00,87.3,82.6,29.84,East,90,2.7,-999.0,86,-99.99,,,0.00,Acu-Link.com,2013-07-28 14:02:00,
2013-07-28 10:17:00,88.3,78.9,29.84,ESE,112,2.2,-999.0,74,-99.99,,,0.00,Acu-Link.com,2013-07-28 14:17:00,
2013-07-28 10:33:00,88.2,80.1,29.85,South,180,0.0,-999.0,77,-99.99,,,0.00,Acu-Link.com,2013-07-28 14:33:00,
2013-07-28 10:48:00,86.7,79.8,29.84,SW,225,2.2,-999.0,80,-99.99,,,0.00,Acu-Link.com,2013-07-28 14:48:00,
2013-07-28 11:03:00,88.7,80.5,29.85,ESE,112,2.2,-999.0,77,-99.99,,,0.00,Acu-Link.com,2013-07-28 15:03:00,
2013-07-28 11:18:00,88.0,78.6,29.85,West,270,2.7,-999.0,74,-99.99,,,0.00,Acu-Link.com,2013-07-28 15:18:00,
2013-07-28 11:34:00,87.6,79.5,29.85,NE,45,2.2,-999.0,77,-99.99,,,0.00,Acu-Link.com,2013-07-28 15:34:00,
2013-07-28 11:49:00,88.9,79.9,29.85,West,270,2.7,-999.0,75,-99.99,,,0.00,Acu-Link.com,2013-07-28 15:49:00,
2013-07-28 12:04:00,89.1,78.0,29.85,West,270,2.7,-999.0,70,-99.99,,,0.00,Acu-Link.com,2013-07-28 16:04:00,
2013-07-28 12:20:00,88.5,76.1,29.85,SSW,202,3.2,-999.0,67,-99.99,,,0.00,Acu-Link.com,2013-07-28 16:20:00,
2013-07-28 12:35:00,89.1,75.3,29.85,SSW,202,5.8,-999.0,64,-99.99,,,0.00,Acu-Link.com,2013-07-28 16:35:00,
2013-07-28 12:50:00,90.3,75.0,29.85,SSW,202,4.7,-999.0,61,-99.99,,,0.00,Acu-Link.com,2013-07-28 16:50:00,
2013-07-28 13:06:00,90.3,74.5,29.84,SSE,157,3.7,-999.0,60,-99.99,,,0.00,Acu-Link.com,2013-07-28 17:06:00,
2013-07-28 13:21:00,90.3,76.4,29.83,West,270,0.0,-999.0,64,-99.99,,,0.00,Acu-Link.com,2013-07-28 17:21:00,
2013-07-28 13:36:00,91.2,76.8,29.83,SSW,202,6.8,-999.0,63,-99.99,,,0.00,Acu-Link.com,2013-07-28 17:36:00,
2013-07-28 13:51:00,92.8,75.3,29.83,NNE,22,5.8,-999.0,57,-99.99,,,0.00,Acu-Link.com,2013-07-28 17:51:00,
2013-07-28 14:06:00,93.4,76.9,29.84,South,180,4.2,-999.0,59,-99.99,,,0.00,Acu-Link.com,2013-07-28 18:06:00,
2013-07-28 14:22:00,93.7,76.1,29.83,West,270,2.2,-999.0,57,-99.99,,,0.00,Acu-Link.com,2013-07-28 18:22:00,
2013-07-28 14:37:00,92.8,75.3,29.83,SSW,202,4.7,-999.0,57,-99.99,,,0.00,Acu-Link.com,2013-07-28 18:37:00,
2013-07-28 14:52:00,92.8,77.8,29.81,South,180,1.1,-999.0,62,-99.99,,,0.00,Acu-Link.com,2013-07-28 18:52:00,
2013-07-28 15:08:00,92.7,77.2,29.82,ESE,112,3.2,-999.0,61,-99.99,,,0.00,Acu-Link.com,2013-07-28 19:08:00,
2013-07-28 15:23:00,89.6,77.2,29.82,NNE,22,2.2,-999.0,67,-99.99,,,0.00,Acu-Link.com,2013-07-28 19:23:00,
2013-07-28 15:38:00,87.1,78.6,29.83,WSW,247,3.7,-999.0,76,-99.99,,,0.00,Acu-Link.com,2013-07-28 19:38:00,
2013-07-28 15:53:00,82.9,77.9,29.84,SSW,202,4.7,-999.0,85,-99.99,,,0.00,Acu-Link.com,2013-07-28 19:53:00,
2013-07-28 16:09:00,81.5,80.9,29.82,South,180,4.2,-999.0,98,-99.99,,,0.00,Acu-Link.com,2013-07-28 20:09:00,
2013-07-28 16:24:00,81.0,80.4,29.84,South,180,2.2,-999.0,98,-99.99,,,0.00,Acu-Link.com,2013-07-28 20:24:00,
2013-07-28 16:39:00,81.7,81.1,29.85,SSW,202,1.7,-999.0,98,-99.99,,,0.00,Acu-Link.com,2013-07-28 20:39:00,
2013-07-28 16:54:00,82.9,82.3,29.86,WSW,247,1.1,-999.0,98,-99.99,,,0.00,Acu-Link.com,2013-07-28 20:54:00,
2013-07-28 17:10:00,82.9,82.3,29.86,WNW,292,2.2,-999.0,98,-99.99,,,0.00,Acu-Link.com,2013-07-28 21:10:00,
2013-07-28 17:25:00,81.1,80.5,29.85,South,180,4.2,-999.0,98,-99.99,,,0.00,Acu-Link.com,2013-07-28 21:25:00,
2013-07-28 17:40:00,81.0,80.4,29.85,South,180,2.2,-999.0,98,-99.99,,,0.00,Acu-Link.com,2013-07-28 21:40:00,
2013-07-28 17:56:00,81.9,81.3,29.85,NNE,22,0.0,-999.0,98,-99.99,,,0.00,Acu-Link.com,2013-07-28 21:56:00,
2013-07-28 18:26:00,81.7,80.8,29.86,West,270,0.0,-999.0,97,-99.99,,,0.00,Acu-Link.com,2013-07-28 22:26:00,
2013-07-28 18:42:00,81.5,80.9,29.86,WNW,292,0.0,-999.0,98,-99.99,,,0.00,Acu-Link.com,2013-07-28 22:42:00,
2013-07-28 18:57:00,80.8,80.2,29.85,North,0,2.2,-999.0,98,-99.99,,,0.00,Acu-Link.com,2013-07-28 22:57:00,
2013-07-28 19:12:00,79.9,79.3,29.85,WNW,292,2.2,-999.0,98,-99.99,,,0.00,Acu-Link.com,2013-07-28 23:12:00,
2013-07-28 19:42:00,79.5,78.9,29.86,South,180,6.8,-999.0,98,-99.99,,,0.00,Acu-Link.com,2013-07-28 23:42:00,
2013-07-28 19:58:00,78.3,77.7,29.85,South,180,7.3,-999.0,98,-99.99,,,0.00,Acu-Link.com,2013-07-28 23:58:00,
2013-07-28 20:13:00,77.7,77.1,29.85,South,180,5.8,-999.0,98,-99.99,,,0.00,Acu-Link.com,2013-07-29 00:13:00,
2013-07-28 20:28:00,77.9,77.3,29.86,SE,135,2.7,-999.0,98,-99.99,,,0.00,Acu-Link.com,2013-07-29 00:28:00,
2013-07-28 20:44:00,77.9,77.3,29.87,SSE,157,2.2,-999.0,98,-99.99,,,0.00,Acu-Link.com,2013-07-29 00:44:00,
2013-07-28 20:59:00,77.4,76.8,29.87,South,180,4.7,-999.0,98,-99.99,,,0.00,Acu-Link.com,2013-07-29 00:59:00,
2013-07-28 21:14:00,77.4,76.8,29.88,SSW,202,2.2,-999.0,98,-99.99,,,0.00,Acu-Link.com,2013-07-29 01:14:00,
2013-07-28 21:30:00,77.0,76.4,29.88,West,270,0.0,-999.0,98,-99.99,,,0.00,Acu-Link.com,2013-07-29 01:30:00,
2013-07-28 22:00:00,76.8,76.2,29.89,NW,315,0.0,-999.0,98,-99.99,,,0.00,Acu-Link.com,2013-07-29 02:00:00,
2013-07-28 22:15:00,77.0,76.4,29.89,SW,225,4.2,-999.0,98,-99.99,,,0.00,Acu-Link.com,2013-07-29 02:15:00,
2013-07-28 22:31:00,77.2,76.6,29.90,SSW,202,2.7,-999.0,98,-99.99,,,0.00,Acu-Link.com,2013-07-29 02:31:00,
2013-07-28 23:01:00,76.5,75.9,29.90,SW,225,2.2,-999.0,98,-99.99,,,0.00,Acu-Link.com,2013-07-29 03:01:00,
2013-07-28 23:32:00,76.3,75.7,29.90,South,180,1.7,-999.0,98,-99.99,,,0.00,Acu-Link.com,2013-07-29 03:32:00,
2013-07-28 23:47:00,76.3,75.7,29.90,South,180,2.2,-999.0,98,-99.99,,,0.00,Acu-Link.com,2013-07-29 03:47:00,